sensor_id;sensor_type;location;lat;lon;timestamp;pressure;altitude;pressure_sealevel;temperature;humidity
2875;BME280;1445;52.600;13.328;2023-02-20T00:01:30;101503.31;;;2.64;100.00
2875;BME280;1445;52.600;13.328;2023-02-20T00:03:56;101522.19;;;2.59;100.00
2875;BME280;1445;52.600;13.328;2023-02-20T00:06:21;101507.69;;;2.65;100.00
2875;BME280;1445;52.600;13.328;2023-02-20T00:08:46;101507.69;;;2.65;100.00
2875;BME280;1445;52.600;13.328;2023-02-20T00:11:15;101513.38;;;2.63;100.00
2875;BME280;1445;52.600;13.328;2023-02-20T00:13:47;101506.75;;;2.71;100.00
2875;BME280;1445;52.600;13.328;2023-02-20T00:16:13;101520.97;;;2.73;100.00
2875;BME280;1445;52.600;13.328;2023-02-20T00:18:39;101503.13;;;2.77;100.00
2875;BME280;1445;52.600;13.328;2023-02-20T00:21:05;101512.69;;;2.80;100.00
2875;BME280;1445;52.600;13.328;2023-02-20T00:23:34;101505.25;;;2.75;100.00
2875;BME280;1445;52.600;13.328;2023-02-20T00:26:00;101492.91;;;2.73;100.00
2875;BME280;1445;52.600;13.328;2023-02-20T00:28:25;101486.88;;;2.71;100.00
2875;BME280;1445;52.600;13.328;2023-02-20T00:30:51;101483.63;;;2.62;100.00
2875;BME280;1445;52.600;13.328;2023-02-20T00:33:16;101486.22;;;2.57;100.00
2875;BME280;1445;52.600;13.328;2023-02-20T00:35:42;101496.06;;;2.58;100.00
2875;BME280;1445;52.600;13.328;2023-02-20T00:38:08;101483.72;;;2.55;100.00
2875;BME280;1445;52.600;13.328;2023-02-20T00:40:33;101481.09;;;2.49;100.00
2875;BME280;1445;52.600;13.328;2023-02-20T00:42:58;101487.59;;;2.48;100.00
2875;BME280;1445;52.600;13.328;2023-02-20T00:45:24;101482.97;;;2.48;100.00
2875;BME280;1445;52.600;13.328;2023-02-20T00:47:49;101479.75;;;2.39;100.00
2875;BME280;1445;52.600;13.328;2023-02-20T00:50:17;101474.44;;;2.45;100.00
2875;BME280;1445;52.600;13.328;2023-02-20T00:52:43;101472.56;;;2.45;100.00
2875;BME280;1445;52.600;13.328;2023-02-20T00:55:09;101475.53;;;2.44;100.00
2875;BME280;1445;52.600;13.328;2023-02-20T00:57:38;101466.06;;;2.46;100.00
2875;BME280;1445;52.600;13.328;2023-02-20T01:00:07;101458.50;;;2.48;100.00
2875;BME280;1445;52.600;13.328;2023-02-20T01:02:33;101459.31;;;2.49;100.00
2875;BME280;1445;52.600;13.328;2023-02-20T01:04:59;101459.22;;;2.55;100.00
2875;BME280;1445;52.600;13.328;2023-02-20T01:07:24;101453.56;;;2.57;100.00
2875;BME280;1445;52.600;13.328;2023-02-20T01:09:49;101456.19;;;2.63;100.00
2875;BME280;1445;52.600;13.328;2023-02-20T01:12:18;101457.97;;;2.70;100.00
2875;BME280;1445;52.600;13.328;2023-02-20T01:14:43;101449.34;;;2.73;100.00
2875;BME280;1445;52.600;13.328;2023-02-20T01:17:11;101452.91;;;2.73;100.00
2875;BME280;1445;52.600;13.328;2023-02-20T01:19:36;101446.31;;;2.81;100.00
2875;BME280;1445;52.600;13.328;2023-02-20T01:22:02;101444.16;;;2.83;100.00
2875;BME280;1445;52.600;13.328;2023-02-20T01:24:33;101435.19;;;2.82;100.00
2875;BME280;1445;52.600;13.328;2023-02-20T01:26:58;101437.28;;;2.80;100.00
2875;BME280;1445;52.600;13.328;2023-02-20T01:29:23;101427.00;;;2.82;100.00
2875;BME280;1445;52.600;13.328;2023-02-20T01:31:50;101424.66;;;2.86;100.00
2875;BME280;1445;52.600;13.328;2023-02-20T01:34:19;101405.94;;;2.90;100.00
2875;BME280;1445;52.600;13.328;2023-02-20T01:36:47;101405.84;;;2.84;100.00
2875;BME280;1445;52.600;13.328;2023-02-20T01:39:21;101403.47;;;2.88;100.00
2875;BME280;1445;52.600;13.328;2023-02-20T01:42:00;101407.13;;;2.94;100.00
2875;BME280;1445;52.600;13.328;2023-02-20T01:44:39;101400.97;;;2.86;100.00
2875;BME280;1445;52.600;13.328;2023-02-20T01:47:21;101400.25;;;2.91;100.00
2875;BME280;1445;52.600;13.328;2023-02-20T01:49:51;101400.03;;;2.93;100.00
2875;BME280;1445;52.600;13.328;2023-02-20T01:52:27;101384.78;;;2.92;100.00
2875;BME280;1445;52.600;13.328;2023-02-20T01:57:27;101364.03;;;2.91;100.00
2875;BME280;1445;52.600;13.328;2023-02-20T01:59:56;101354.56;;;2.93;100.00
2875;BME280;1445;52.600;13.328;2023-02-20T02:02:32;101344.38;;;2.89;100.00
2875;BME280;1445;52.600;13.328;2023-02-20T02:05:00;101340.69;;;2.95;100.00
2875;BME280;1445;52.600;13.328;2023-02-20T02:07:28;101341.56;;;2.95;100.00
2875;BME280;1445;52.600;13.328;2023-02-20T02:10:03;101344.84;;;2.97;100.00
2875;BME280;1445;52.600;13.328;2023-02-20T02:12:31;101338.94;;;3.00;100.00
2875;BME280;1445;52.600;13.328;2023-02-20T02:14:56;101338.22;;;3.05;100.00
2875;BME280;1445;52.600;13.328;2023-02-20T02:31:29;101336.91;;;3.19;100.00
2875;BME280;1445;52.600;13.328;2023-02-20T02:45:36;101302.69;;;3.23;100.00
2875;BME280;1445;52.600;13.328;2023-02-20T02:50:47;101296.41;;;3.23;100.00
2875;BME280;1445;52.600;13.328;2023-02-20T02:53:14;101297.47;;;3.22;100.00
2875;BME280;1445;52.600;13.328;2023-02-20T02:55:39;101287.28;;;3.29;100.00
2875;BME280;1445;52.600;13.328;2023-02-20T02:58:05;101297.34;;;3.28;100.00
2875;BME280;1445;52.600;13.328;2023-02-20T03:00:43;101301.84;;;3.34;100.00
2875;BME280;1445;52.600;13.328;2023-02-20T03:03:19;101291.50;;;3.37;100.00
2875;BME280;1445;52.600;13.328;2023-02-20T03:05:51;101285.59;;;3.40;100.00
2875;BME280;1445;52.600;13.328;2023-02-20T03:08:27;101284.28;;;3.42;100.00
2875;BME280;1445;52.600;13.328;2023-02-20T03:11:24;101274.81;;;3.45;100.00
2875;BME280;1445;52.600;13.328;2023-02-20T03:16:47;101259.50;;;3.55;100.00
2875;BME280;1445;52.600;13.328;2023-02-20T03:19:15;101259.72;;;3.54;100.00
2875;BME280;1445;52.600;13.328;2023-02-20T03:21:45;101258.41;;;3.56;100.00
2875;BME280;1445;52.600;13.328;2023-02-20T03:24:13;101254.94;;;3.61;100.00
2875;BME280;1445;52.600;13.328;2023-02-20T03:26:41;101251.03;;;3.69;100.00
2875;BME280;1445;52.600;13.328;2023-02-20T03:29:16;101239.94;;;3.75;100.00
2875;BME280;1445;52.600;13.328;2023-02-20T03:31:55;101237.00;;;3.77;100.00
2875;BME280;1445;52.600;13.328;2023-02-20T03:34:42;101220.38;;;3.78;100.00
2875;BME280;1445;52.600;13.328;2023-02-20T03:37:29;101238.97;;;3.81;100.00
2875;BME280;1445;52.600;13.328;2023-02-20T03:40:16;101223.22;;;3.83;100.00
2875;BME280;1445;52.600;13.328;2023-02-20T03:43:06;101224.84;;;3.85;100.00
2875;BME280;1445;52.600;13.328;2023-02-20T03:45:48;101235.34;;;3.93;100.00
2875;BME280;1445;52.600;13.328;2023-02-20T03:50:58;101236.56;;;3.97;100.00
2875;BME280;1445;52.600;13.328;2023-02-20T03:53:24;101236.63;;;4.02;100.00
2875;BME280;1445;52.600;13.328;2023-02-20T03:55:51;101248.47;;;4.07;100.00
2875;BME280;1445;52.600;13.328;2023-02-20T03:58:21;101233.41;;;4.05;100.00
2875;BME280;1445;52.600;13.328;2023-02-20T04:00:50;101230.75;;;4.10;100.00
2875;BME280;1445;52.600;13.328;2023-02-20T04:03:21;101231.69;;;4.16;100.00
2875;BME280;1445;52.600;13.328;2023-02-20T04:05:50;101237.22;;;4.21;100.00
2875;BME280;1445;52.600;13.328;2023-02-20T04:08:22;101225.47;;;4.20;100.00
2875;BME280;1445;52.600;13.328;2023-02-20T04:11:02;101219.53;;;4.23;100.00
2875;BME280;1445;52.600;13.328;2023-02-20T04:13:31;101215.72;;;4.24;100.00
2875;BME280;1445;52.600;13.328;2023-02-20T04:16:00;101231.38;;;4.29;100.00
2875;BME280;1445;52.600;13.328;2023-02-20T04:18:27;101219.84;;;4.27;100.00
2875;BME280;1445;52.600;13.328;2023-02-20T04:20:54;101220.78;;;4.33;100.00
2875;BME280;1445;52.600;13.328;2023-02-20T04:23:22;101206.63;;;4.36;100.00
2875;BME280;1445;52.600;13.328;2023-02-20T04:28:18;101193.66;;;4.43;100.00
2875;BME280;1445;52.600;13.328;2023-02-20T04:30:44;101198.28;;;4.42;100.00
2875;BME280;1445;52.600;13.328;2023-02-20T04:33:11;101193.88;;;4.41;100.00
2875;BME280;1445;52.600;13.328;2023-02-20T04:35:38;101179.75;;;4.44;100.00
2875;BME280;1445;52.600;13.328;2023-02-20T04:38:03;101175.19;;;4.50;100.00
2875;BME280;1445;52.600;13.328;2023-02-20T04:40:28;101175.53;;;4.53;100.00
2875;BME280;1445;52.600;13.328;2023-02-20T04:42:54;101173.13;;;4.57;100.00
2875;BME280;1445;52.600;13.328;2023-02-20T04:45:23;101178.63;;;4.62;100.00
2875;BME280;1445;52.600;13.328;2023-02-20T04:47:52;101182.78;;;4.65;100.00
2875;BME280;1445;52.600;13.328;2023-02-20T04:50:24;101176.00;;;4.67;100.00
2875;BME280;1445;52.600;13.328;2023-02-20T04:52:49;101169.69;;;4.67;100.00
2875;BME280;1445;52.600;13.328;2023-02-20T04:55:15;101166.22;;;4.71;100.00
2875;BME280;1445;52.600;13.328;2023-02-20T04:57:40;101152.78;;;4.70;100.00
2875;BME280;1445;52.600;13.328;2023-02-20T05:00:06;101160.97;;;4.70;100.00
2875;BME280;1445;52.600;13.328;2023-02-20T05:02:37;101144.69;;;4.75;100.00
2875;BME280;1445;52.600;13.328;2023-02-20T05:05:04;101141.69;;;4.76;100.00
2875;BME280;1445;52.600;13.328;2023-02-20T05:07:31;101140.34;;;4.79;100.00
2875;BME280;1445;52.600;13.328;2023-02-20T05:09:56;101125.06;;;4.78;100.00
2875;BME280;1445;52.600;13.328;2023-02-20T05:12:22;101124.78;;;4.79;100.00
2875;BME280;1445;52.600;13.328;2023-02-20T05:14:47;101119.59;;;4.78;100.00
2875;BME280;1445;52.600;13.328;2023-02-20T05:17:13;101119.34;;;4.79;100.00
2875;BME280;1445;52.600;13.328;2023-02-20T05:19:38;101106.75;;;4.78;100.00
2875;BME280;1445;52.600;13.328;2023-02-20T05:22:09;101115.81;;;4.84;100.00
2875;BME280;1445;52.600;13.328;2023-02-20T05:24:46;101113.63;;;4.81;100.00
2875;BME280;1445;52.600;13.328;2023-02-20T05:27:15;101118.00;;;4.82;100.00
2875;BME280;1445;52.600;13.328;2023-02-20T05:29:49;101139.03;;;4.82;100.00
2875;BME280;1445;52.600;13.328;2023-02-20T05:32:16;101123.53;;;4.87;100.00
2875;BME280;1445;52.600;13.328;2023-02-20T05:34:42;101126.75;;;4.84;100.00
2875;BME280;1445;52.600;13.328;2023-02-20T05:37:09;101132.75;;;4.81;100.00
2875;BME280;1445;52.600;13.328;2023-02-20T05:39:34;101120.97;;;4.81;100.00
2875;BME280;1445;52.600;13.328;2023-02-20T05:41:59;101113.03;;;4.79;100.00
2875;BME280;1445;52.600;13.328;2023-02-20T05:44:25;101123.72;;;4.81;100.00
2875;BME280;1445;52.600;13.328;2023-02-20T05:46:50;101114.69;;;4.80;100.00
2875;BME280;1445;52.600;13.328;2023-02-20T05:49:18;101108.16;;;4.81;100.00
2875;BME280;1445;52.600;13.328;2023-02-20T05:51:44;101106.25;;;4.82;100.00
2875;BME280;1445;52.600;13.328;2023-02-20T05:54:09;101113.03;;;4.79;100.00
2875;BME280;1445;52.600;13.328;2023-02-20T05:56:35;101113.38;;;4.83;100.00
2875;BME280;1445;52.600;13.328;2023-02-20T05:59:00;101104.03;;;4.78;100.00
2875;BME280;1445;52.600;13.328;2023-02-20T06:01:30;101089.09;;;4.86;100.00
2875;BME280;1445;52.600;13.328;2023-02-20T06:03:56;101075.44;;;4.86;100.00
2875;BME280;1445;52.600;13.328;2023-02-20T06:06:22;101071.38;;;4.89;100.00
2875;BME280;1445;52.600;13.328;2023-02-20T06:08:47;101085.34;;;4.92;100.00
2875;BME280;1445;52.600;13.328;2023-02-20T06:11:13;101074.75;;;4.96;100.00
2875;BME280;1445;52.600;13.328;2023-02-20T06:13:40;101068.25;;;5.02;100.00
2875;BME280;1445;52.600;13.328;2023-02-20T06:16:06;101060.31;;;5.00;100.00
2875;BME280;1445;52.600;13.328;2023-02-20T06:18:32;101052.69;;;5.02;100.00
2875;BME280;1445;52.600;13.328;2023-02-20T06:20:57;101047.84;;;5.10;100.00
2875;BME280;1445;52.600;13.328;2023-02-20T06:23:23;101050.56;;;5.10;100.00
2875;BME280;1445;52.600;13.328;2023-02-20T06:25:48;101045.03;;;5.05;100.00
2875;BME280;1445;52.600;13.328;2023-02-20T06:28:14;101038.25;;;5.07;100.00
2875;BME280;1445;52.600;13.328;2023-02-20T06:30:39;101054.94;;;5.11;100.00
2875;BME280;1445;52.600;13.328;2023-02-20T06:33:05;101034.50;;;5.13;100.00
2875;BME280;1445;52.600;13.328;2023-02-20T06:35:30;101032.81;;;5.12;100.00
2875;BME280;1445;52.600;13.328;2023-02-20T06:37:56;101016.41;;;5.12;100.00
2875;BME280;1445;52.600;13.328;2023-02-20T06:40:21;101053.34;;;5.15;100.00
2875;BME280;1445;52.600;13.328;2023-02-20T06:42:47;101031.69;;;5.08;100.00
2875;BME280;1445;52.600;13.328;2023-02-20T06:45:12;101015.06;;;5.10;100.00
2875;BME280;1445;52.600;13.328;2023-02-20T06:47:38;101001.94;;;5.12;100.00
2875;BME280;1445;52.600;13.328;2023-02-20T06:50:03;101011.53;;;5.14;100.00
2875;BME280;1445;52.600;13.328;2023-02-20T06:52:29;101058.88;;;5.20;100.00
2875;BME280;1445;52.600;13.328;2023-02-20T06:54:54;101029.13;;;5.23;100.00
2875;BME280;1445;52.600;13.328;2023-02-20T06:57:20;101026.69;;;5.27;100.00
2875;BME280;1445;52.600;13.328;2023-02-20T06:59:46;101030.78;;;5.30;100.00
2875;BME280;1445;52.600;13.328;2023-02-20T07:02:14;101016.31;;;5.29;100.00
2875;BME280;1445;52.600;13.328;2023-02-20T07:04:40;101000.78;;;5.35;100.00
2875;BME280;1445;52.600;13.328;2023-02-20T07:07:05;101026.53;;;5.44;100.00
2875;BME280;1445;52.600;13.328;2023-02-20T07:09:34;100979.03;;;5.50;100.00
2875;BME280;1445;52.600;13.328;2023-02-20T07:12:00;100961.00;;;5.54;100.00
2875;BME280;1445;52.600;13.328;2023-02-20T07:14:25;100977.47;;;5.59;100.00
2875;BME280;1445;52.600;13.328;2023-02-20T07:16:51;100984.06;;;5.68;100.00
2875;BME280;1445;52.600;13.328;2023-02-20T07:19:16;100975.09;;;5.73;100.00
2875;BME280;1445;52.600;13.328;2023-02-20T07:21:42;100981.69;;;5.77;100.00
2875;BME280;1445;52.600;13.328;2023-02-20T07:24:07;100950.78;;;5.82;100.00
2875;BME280;1445;52.600;13.328;2023-02-20T07:26:32;100974.88;;;5.85;100.00
2875;BME280;1445;52.600;13.328;2023-02-20T07:28:59;100982.06;;;5.91;100.00
2875;BME280;1445;52.600;13.328;2023-02-20T07:31:25;100973.28;;;5.89;100.00
2875;BME280;1445;52.600;13.328;2023-02-20T07:33:51;100958.28;;;5.96;100.00
2875;BME280;1445;52.600;13.328;2023-02-20T07:36:16;100981.84;;;5.97;100.00
2875;BME280;1445;52.600;13.328;2023-02-20T07:38:42;100950.97;;;6.07;100.00
2875;BME280;1445;52.600;13.328;2023-02-20T07:41:08;100927.72;;;6.10;100.00
2875;BME280;1445;52.600;13.328;2023-02-20T07:43:34;100941.69;;;6.08;100.00
2875;BME280;1445;52.600;13.328;2023-02-20T07:45:59;100918.97;;;6.13;100.00
2875;BME280;1445;52.600;13.328;2023-02-20T07:48:27;100927.22;;;6.18;100.00
2875;BME280;1445;52.600;13.328;2023-02-20T07:50:53;100925.28;;;6.18;100.00
2875;BME280;1445;52.600;13.328;2023-02-20T07:53:19;100884.53;;;6.22;100.00
2875;BME280;1445;52.600;13.328;2023-02-20T07:55:45;100906.69;;;6.20;100.00
2875;BME280;1445;52.600;13.328;2023-02-20T07:58:11;100929.16;;;6.22;100.00
2875;BME280;1445;52.600;13.328;2023-02-20T08:00:36;100917.13;;;6.29;100.00
2875;BME280;1445;52.600;13.328;2023-02-20T08:03:02;100906.72;;;6.31;100.00
2875;BME280;1445;52.600;13.328;2023-02-20T08:05:28;100891.38;;;6.30;100.00
2875;BME280;1445;52.600;13.328;2023-02-20T08:07:55;100871.41;;;6.29;100.00
2875;BME280;1445;52.600;13.328;2023-02-20T08:10:23;100861.28;;;6.35;100.00
2875;BME280;1445;52.600;13.328;2023-02-20T08:12:50;100863.47;;;6.38;100.00
2875;BME280;1445;52.600;13.328;2023-02-20T08:15:17;100856.06;;;6.38;100.00
2875;BME280;1445;52.600;13.328;2023-02-20T08:17:43;100847.88;;;6.43;100.00
2875;BME280;1445;52.600;13.328;2023-02-20T08:20:09;100850.34;;;6.45;100.00
2875;BME280;1445;52.600;13.328;2023-02-20T08:22:36;100839.13;;;6.47;100.00
2875;BME280;1445;52.600;13.328;2023-02-20T08:25:01;100865.69;;;6.51;100.00
2875;BME280;1445;52.600;13.328;2023-02-20T08:27:29;100822.97;;;6.50;100.00
2875;BME280;1445;52.600;13.328;2023-02-20T08:29:55;100853.91;;;6.56;100.00
2875;BME280;1445;52.600;13.328;2023-02-20T08:32:20;100821.31;;;6.59;100.00
2875;BME280;1445;52.600;13.328;2023-02-20T08:34:46;100816.13;;;6.58;100.00
2875;BME280;1445;52.600;13.328;2023-02-20T08:37:11;100803.81;;;6.60;100.00
2875;BME280;1445;52.600;13.328;2023-02-20T08:39:37;100790.13;;;6.60;100.00
2875;BME280;1445;52.600;13.328;2023-02-20T08:42:02;100788.19;;;6.61;100.00
2875;BME280;1445;52.600;13.328;2023-02-20T08:44:28;100787.94;;;6.67;100.00
2875;BME280;1445;52.600;13.328;2023-02-20T08:46:53;100787.09;;;6.72;100.00
2875;BME280;1445;52.600;13.328;2023-02-20T08:49:19;100792.84;;;6.76;100.00
2875;BME280;1445;52.600;13.328;2023-02-20T08:51:51;100785.44;;;6.76;100.00
2875;BME280;1445;52.600;13.328;2023-02-20T08:54:17;100782.97;;;6.80;100.00
2875;BME280;1445;52.600;13.328;2023-02-20T08:56:42;100775.56;;;6.80;100.00
2875;BME280;1445;52.600;13.328;2023-02-20T08:59:08;100770.38;;;6.89;100.00
2875;BME280;1445;52.600;13.328;2023-02-20T09:01:33;100752.53;;;6.97;100.00
2875;BME280;1445;52.600;13.328;2023-02-20T09:03:59;100730.06;;;6.94;100.00
2875;BME280;1445;52.600;13.328;2023-02-20T09:06:25;100744.59;;;7.00;100.00
2875;BME280;1445;52.600;13.328;2023-02-20T09:08:52;100723.72;;;7.04;100.00
2875;BME280;1445;52.600;13.328;2023-02-20T09:11:18;100727.28;;;7.10;100.00
2875;BME280;1445;52.600;13.328;2023-02-20T09:13:44;100728.06;;;7.15;100.00
2875;BME280;1445;52.600;13.328;2023-02-20T09:16:15;100713.56;;;7.15;100.00
2875;BME280;1445;52.600;13.328;2023-02-20T09:18:41;100710.00;;;7.20;100.00
2875;BME280;1445;52.600;13.328;2023-02-20T09:21:08;100703.09;;;7.27;100.00
2875;BME280;1445;52.600;13.328;2023-02-20T09:23:35;100694.59;;;7.29;100.00
2875;BME280;1445;52.600;13.328;2023-02-20T09:26:00;100679.75;;;7.35;100.00
2875;BME280;1445;52.600;13.328;2023-02-20T09:28:26;100667.13;;;7.39;100.00
2875;BME280;1445;52.600;13.328;2023-02-20T09:30:51;100681.91;;;7.43;100.00
2875;BME280;1445;52.600;13.328;2023-02-20T09:33:19;100692.88;;;7.48;100.00
2875;BME280;1445;52.600;13.328;2023-02-20T09:35:44;100665.97;;;7.50;100.00
2875;BME280;1445;52.600;13.328;2023-02-20T09:38:10;100675.84;;;7.51;100.00
2875;BME280;1445;52.600;13.328;2023-02-20T09:40:36;100664.84;;;7.56;100.00
2875;BME280;1445;52.600;13.328;2023-02-20T09:46:21;100680.75;;;7.54;100.00
2875;BME280;1445;52.600;13.328;2023-02-20T09:52:00;100662.34;;;7.60;100.00
2875;BME280;1445;52.600;13.328;2023-02-20T09:54:33;100671.06;;;7.67;100.00
2875;BME280;1445;52.600;13.328;2023-02-20T09:57:02;100668.03;;;7.69;100.00
2875;BME280;1445;52.600;13.328;2023-02-20T10:00:05;100647.44;;;7.76;100.00
2875;BME280;1445;52.600;13.328;2023-02-20T10:02:24;100646.56;;;7.81;100.00
2875;BME280;1445;52.600;13.328;2023-02-20T10:04:55;100665.72;;;7.91;100.00
2875;BME280;1445;52.600;13.328;2023-02-20T10:07:30;100652.47;;;7.98;100.00
2875;BME280;1445;52.600;13.328;2023-02-20T10:09:56;100640.38;;;7.99;100.00
2875;BME280;1445;52.600;13.328;2023-02-20T10:12:34;100637.38;;;8.01;100.00
2875;BME280;1445;52.600;13.328;2023-02-20T10:28:14;100618.56;;;8.18;100.00
2875;BME280;1445;52.600;13.328;2023-02-20T10:31:06;100645.06;;;8.28;100.00
2875;BME280;1445;52.600;13.328;2023-02-20T10:33:50;100648.84;;;8.37;100.00
2875;BME280;1445;52.600;13.328;2023-02-20T10:36:27;100613.56;;;8.49;100.00
2875;BME280;1445;52.600;13.328;2023-02-20T10:38:59;100599.25;;;8.52;100.00
2875;BME280;1445;52.600;13.328;2023-02-20T10:41:42;100587.66;;;8.60;100.00
2875;BME280;1445;52.600;13.328;2023-02-20T10:44:18;100600.75;;;8.69;100.00
2875;BME280;1445;52.600;13.328;2023-02-20T10:46:59;100579.53;;;8.74;100.00
2875;BME280;1445;52.600;13.328;2023-02-20T10:51:59;100588.59;;;8.75;100.00
2875;BME280;1445;52.600;13.328;2023-02-20T10:55:24;100593.16;;;8.84;100.00
2875;BME280;1445;52.600;13.328;2023-02-20T10:58:00;100567.97;;;8.96;100.00
2875;BME280;1445;52.600;13.328;2023-02-20T11:00:38;100576.44;;;9.00;100.00
2875;BME280;1445;52.600;13.328;2023-02-20T11:03:09;100569.56;;;9.02;100.00
2875;BME280;1445;52.600;13.328;2023-02-20T11:05:44;100593.75;;;9.00;100.00
2875;BME280;1445;52.600;13.328;2023-02-20T11:08:11;100575.84;;;9.03;100.00
2875;BME280;1445;52.600;13.328;2023-02-20T11:10:36;100571.69;;;9.05;100.00
2875;BME280;1445;52.600;13.328;2023-02-20T11:13:03;100587.00;;;9.12;100.00
2875;BME280;1445;52.600;13.328;2023-02-20T11:15:33;100580.34;;;9.18;100.00
2875;BME280;1445;52.600;13.328;2023-02-20T11:18:02;100597.88;;;9.22;100.00
2875;BME280;1445;52.600;13.328;2023-02-20T11:23:08;100577.13;;;9.29;100.00
2875;BME280;1445;52.600;13.328;2023-02-20T11:25:36;100561.16;;;9.31;100.00
2875;BME280;1445;52.600;13.328;2023-02-20T11:28:09;100592.44;;;9.36;100.00
2875;BME280;1445;52.600;13.328;2023-02-20T11:30:40;100567.41;;;9.37;100.00
2875;BME280;1445;52.600;13.328;2023-02-20T11:35:39;100562.94;;;9.41;100.00
2875;BME280;1445;52.600;13.328;2023-02-20T11:43:30;100585.81;;;9.37;100.00
2875;BME280;1445;52.600;13.328;2023-02-20T11:48:34;100587.16;;;9.39;100.00
2875;BME280;1445;52.600;13.328;2023-02-20T11:50:59;100560.19;;;9.41;100.00
2875;BME280;1445;52.600;13.328;2023-02-20T11:53:30;100617.66;;;9.43;100.00
2875;BME280;1445;52.600;13.328;2023-02-20T11:56:10;100579.13;;;9.43;100.00
2875;BME280;1445;52.600;13.328;2023-02-20T11:58:36;100613.28;;;9.42;100.00
2875;BME280;1445;52.600;13.328;2023-02-20T12:01:02;100568.44;;;9.41;100.00
2875;BME280;1445;52.600;13.328;2023-02-20T12:03:30;100553.56;;;9.42;100.00
2875;BME280;1445;52.600;13.328;2023-02-20T12:05:58;100571.19;;;9.41;100.00
2875;BME280;1445;52.600;13.328;2023-02-20T12:11:18;100581.63;;;9.44;100.00
2875;BME280;1445;52.600;13.328;2023-02-20T12:13:47;100592.53;;;9.49;100.00
2875;BME280;1445;52.600;13.328;2023-02-20T12:16:54;100573.56;;;9.48;100.00
2875;BME280;1445;52.600;13.328;2023-02-20T12:19:35;100554.59;;;9.46;100.00
2875;BME280;1445;52.600;13.328;2023-02-20T12:30:31;100550.22;;;9.45;100.00
2875;BME280;1445;52.600;13.328;2023-02-20T12:33:33;100582.72;;;9.43;100.00
2875;BME280;1445;52.600;13.328;2023-02-20T12:38:58;100534.75;;;9.49;100.00
2875;BME280;1445;52.600;13.328;2023-02-20T12:41:58;100587.84;;;9.50;100.00
2875;BME280;1445;52.600;13.328;2023-02-20T12:47:36;100565.09;;;9.44;100.00
2875;BME280;1445;52.600;13.328;2023-02-20T12:52:48;100580.53;;;9.40;100.00
2875;BME280;1445;52.600;13.328;2023-02-20T13:00:39;100577.66;;;9.31;100.00
2875;BME280;1445;52.600;13.328;2023-02-20T13:03:10;100586.13;;;9.35;100.00
2875;BME280;1445;52.600;13.328;2023-02-20T13:05:42;100601.84;;;9.35;100.00
2875;BME280;1445;52.600;13.328;2023-02-20T13:08:36;100597.28;;;9.25;100.00
2875;BME280;1445;52.600;13.328;2023-02-20T13:11:11;100573.25;;;9.12;100.00
2875;BME280;1445;52.600;13.328;2023-02-20T13:16:41;100590.41;;;8.84;100.00
2875;BME280;1445;52.600;13.328;2023-02-20T13:19:44;100584.94;;;8.79;100.00
2875;BME280;1445;52.600;13.328;2023-02-20T13:22:15;100581.81;;;8.67;100.00
2875;BME280;1445;52.600;13.328;2023-02-20T13:24:41;100595.66;;;8.57;100.00
2875;BME280;1445;52.600;13.328;2023-02-20T13:27:08;100614.94;;;8.52;100.00
2875;BME280;1445;52.600;13.328;2023-02-20T13:30:01;100610.25;;;8.52;100.00
2875;BME280;1445;52.600;13.328;2023-02-20T13:32:34;100611.38;;;8.51;100.00
2875;BME280;1445;52.600;13.328;2023-02-20T13:38:08;100607.34;;;8.44;100.00
2875;BME280;1445;52.600;13.328;2023-02-20T13:40:36;100628.75;;;8.47;100.00
2875;BME280;1445;52.600;13.328;2023-02-20T13:45:41;100598.84;;;8.40;100.00
2875;BME280;1445;52.600;13.328;2023-02-20T13:50:43;100621.88;;;8.44;100.00
2875;BME280;1445;52.600;13.328;2023-02-20T13:53:08;100618.56;;;8.47;100.00
2875;BME280;1445;52.600;13.328;2023-02-20T13:55:34;100618.81;;;8.51;100.00
2875;BME280;1445;52.600;13.328;2023-02-20T13:58:09;100636.63;;;8.53;100.00
2875;BME280;1445;52.600;13.328;2023-02-20T14:00:46;100617.91;;;8.55;100.00
2875;BME280;1445;52.600;13.328;2023-02-20T14:03:19;100628.09;;;8.55;100.00
2875;BME280;1445;52.600;13.328;2023-02-20T14:05:44;100613.47;;;8.59;100.00
2875;BME280;1445;52.600;13.328;2023-02-20T14:08:19;100613.25;;;8.56;100.00
2875;BME280;1445;52.600;13.328;2023-02-20T14:10:45;100633.25;;;8.62;100.00
2875;BME280;1445;52.600;13.328;2023-02-20T14:13:19;100621.69;;;8.65;100.00
2875;BME280;1445;52.600;13.328;2023-02-20T14:15:57;100598.81;;;8.69;100.00
2875;BME280;1445;52.600;13.328;2023-02-20T14:18:33;100600.44;;;8.70;100.00
2875;BME280;1445;52.600;13.328;2023-02-20T14:21:16;100608.09;;;8.73;100.00
2875;BME280;1445;52.600;13.328;2023-02-20T14:23:43;100623.50;;;8.74;100.00
2875;BME280;1445;52.600;13.328;2023-02-20T14:26:28;100603.91;;;8.81;100.00
2875;BME280;1445;52.600;13.328;2023-02-20T14:28:56;100597.56;;;8.80;100.00
2875;BME280;1445;52.600;13.328;2023-02-20T14:31:35;100615.72;;;8.81;100.00
2875;BME280;1445;52.600;13.328;2023-02-20T14:34:08;100604.97;;;8.85;100.00
2875;BME280;1445;52.600;13.328;2023-02-20T14:39:25;100606.81;;;8.90;100.00
2875;BME280;1445;52.600;13.328;2023-02-20T14:41:57;100587.03;;;8.88;100.00
2875;BME280;1445;52.600;13.328;2023-02-20T14:44:26;100584.81;;;8.90;100.00
2875;BME280;1445;52.600;13.328;2023-02-20T14:46:55;100596.06;;;8.93;100.00
2875;BME280;1445;52.600;13.328;2023-02-20T14:49:27;100588.63;;;8.94;100.00
2875;BME280;1445;52.600;13.328;2023-02-20T14:54:34;100578.97;;;8.96;100.00
2875;BME280;1445;52.600;13.328;2023-02-20T14:57:00;100598.94;;;9.02;100.00
2875;BME280;1445;52.600;13.328;2023-02-20T15:02:00;100581.63;;;9.01;100.00
2875;BME280;1445;52.600;13.328;2023-02-20T15:04:27;100577.19;;;9.05;100.00
2875;BME280;1445;52.600;13.328;2023-02-20T15:07:01;100565.38;;;9.05;100.00
2875;BME280;1445;52.600;13.328;2023-02-20T15:09:38;100582.69;;;9.05;100.00
2875;BME280;1445;52.600;13.328;2023-02-20T15:12:04;100603.50;;;9.12;100.00